sensor_id;sensor_type;location;lat;lon;timestamp;P1;durP1;ratioP1;P2;durP2;ratioP2
6928;SDS011;3504;52.616;13.238;2024-02-14T00:04:58;15.87;;;10.67;;
6928;SDS011;3504;52.616;13.238;2024-02-14T00:09:59;17.23;;;11.10;;
6928;SDS011;3504;52.616;13.238;2024-02-14T00:14:59;15.77;;;9.50;;
6928;SDS011;3504;52.616;13.238;2024-02-14T00:20:00;13.33;;;8.90;;
6928;SDS011;3504;52.616;13.238;2024-02-14T00:25:03;10.07;;;7.83;;
6928;SDS011;3504;52.616;13.238;2024-02-14T00:30:05;11.13;;;7.43;;
6928;SDS011;3504;52.616;13.238;2024-02-14T00:35:06;9.97;;;7.53;;
6928;SDS011;3504;52.616;13.238;2024-02-14T00:40:07;11.20;;;7.53;;
6928;SDS011;3504;52.616;13.238;2024-02-14T00:45:08;11.43;;;7.53;;
6928;SDS011;3504;52.616;13.238;2024-02-14T00:50:09;8.67;;;7.13;;
6928;SDS011;3504;52.616;13.238;2024-02-14T00:55:10;13.73;;;8.80;;
6928;SDS011;3504;52.616;13.238;2024-02-14T01:00:11;10.17;;;7.67;;
6928;SDS011;3504;52.616;13.238;2024-02-14T01:05:11;10.70;;;7.70;;
6928;SDS011;3504;52.616;13.238;2024-02-14T01:10:12;11.77;;;7.90;;
6928;SDS011;3504;52.616;13.238;2024-02-14T01:15:12;11.33;;;7.67;;
6928;SDS011;3504;52.616;13.238;2024-02-14T01:20:13;11.10;;;7.53;;
6928;SDS011;3504;52.616;13.238;2024-02-14T01:25:13;12.23;;;7.43;;
6928;SDS011;3504;52.616;13.238;2024-02-14T01:30:14;10.53;;;7.03;;
6928;SDS011;3504;52.616;13.238;2024-02-14T01:35:14;11.63;;;7.13;;
6928;SDS011;3504;52.616;13.238;2024-02-14T01:40:15;11.47;;;7.63;;
6928;SDS011;3504;52.616;13.238;2024-02-14T01:45:16;12.53;;;8.00;;
6928;SDS011;3504;52.616;13.238;2024-02-14T01:50:16;10.77;;;8.03;;
6928;SDS011;3504;52.616;13.238;2024-02-14T01:55:18;11.23;;;7.80;;
6928;SDS011;3504;52.616;13.238;2024-02-14T02:00:19;11.30;;;7.70;;
6928;SDS011;3504;52.616;13.238;2024-02-14T02:05:20;15.20;;;8.33;;
6928;SDS011;3504;52.616;13.238;2024-02-14T02:10:23;15.33;;;9.47;;
6928;SDS011;3504;52.616;13.238;2024-02-14T02:15:25;15.23;;;10.27;;
6928;SDS011;3504;52.616;13.238;2024-02-14T02:20:27;16.90;;;10.30;;
6928;SDS011;3504;52.616;13.238;2024-02-14T02:25:28;14.17;;;9.80;;
6928;SDS011;3504;52.616;13.238;2024-02-14T02:30:29;18.23;;;12.13;;
6928;SDS011;3504;52.616;13.238;2024-02-14T02:35:30;17.00;;;10.37;;
6928;SDS011;3504;52.616;13.238;2024-02-14T02:40:30;14.03;;;8.63;;
6928;SDS011;3504;52.616;13.238;2024-02-14T02:45:31;11.70;;;7.93;;
6928;SDS011;3504;52.616;13.238;2024-02-14T02:50:31;14.13;;;8.47;;
6928;SDS011;3504;52.616;13.238;2024-02-14T02:55:32;11.83;;;8.77;;
6928;SDS011;3504;52.616;13.238;2024-02-14T03:00:33;13.27;;;9.50;;
6928;SDS011;3504;52.616;13.238;2024-02-14T03:05:34;12.90;;;8.37;;
6928;SDS011;3504;52.616;13.238;2024-02-14T03:10:34;13.27;;;8.37;;
6928;SDS011;3504;52.616;13.238;2024-02-14T03:15:34;11.90;;;8.50;;
6928;SDS011;3504;52.616;13.238;2024-02-14T03:20:35;18.10;;;8.70;;
6928;SDS011;3504;52.616;13.238;2024-02-14T03:25:36;11.93;;;8.37;;
6928;SDS011;3504;52.616;13.238;2024-02-14T03:30:37;12.13;;;8.10;;
6928;SDS011;3504;52.616;13.238;2024-02-14T03:35:39;10.33;;;7.73;;
6928;SDS011;3504;52.616;13.238;2024-02-14T03:40:41;11.70;;;7.97;;
6928;SDS011;3504;52.616;13.238;2024-02-14T03:45:42;13.50;;;8.73;;
6928;SDS011;3504;52.616;13.238;2024-02-14T03:50:42;10.50;;;7.77;;
6928;SDS011;3504;52.616;13.238;2024-02-14T03:55:43;12.73;;;9.23;;
6928;SDS011;3504;52.616;13.238;2024-02-14T04:00:44;11.07;;;7.73;;
6928;SDS011;3504;52.616;13.238;2024-02-14T04:05:44;12.20;;;8.70;;
6928;SDS011;3504;52.616;13.238;2024-02-14T04:10:45;20.13;;;10.23;;
6928;SDS011;3504;52.616;13.238;2024-02-14T04:15:46;15.70;;;10.07;;
6928;SDS011;3504;52.616;13.238;2024-02-14T04:20:47;18.77;;;9.47;;
6928;SDS011;3504;52.616;13.238;2024-02-14T04:25:48;11.97;;;8.17;;
6928;SDS011;3504;52.616;13.238;2024-02-14T04:30:49;12.40;;;8.73;;
6928;SDS011;3504;52.616;13.238;2024-02-14T04:35:49;15.63;;;9.37;;
6928;SDS011;3504;52.616;13.238;2024-02-14T04:40:50;15.33;;;9.60;;
6928;SDS011;3504;52.616;13.238;2024-02-14T04:45:52;13.33;;;8.43;;
6928;SDS011;3504;52.616;13.238;2024-02-14T04:50:53;12.30;;;8.00;;
6928;SDS011;3504;52.616;13.238;2024-02-14T04:55:54;11.33;;;8.60;;
6928;SDS011;3504;52.616;13.238;2024-02-14T05:00:54;11.13;;;8.33;;
6928;SDS011;3504;52.616;13.238;2024-02-14T05:05:55;11.37;;;8.00;;
6928;SDS011;3504;52.616;13.238;2024-02-14T05:10:55;13.83;;;8.60;;
6928;SDS011;3504;52.616;13.238;2024-02-14T05:15:56;11.33;;;7.87;;
6928;SDS011;3504;52.616;13.238;2024-02-14T05:20:56;11.07;;;7.63;;
6928;SDS011;3504;52.616;13.238;2024-02-14T05:25:58;12.23;;;8.27;;
6928;SDS011;3504;52.616;13.238;2024-02-14T05:30:59;12.03;;;7.93;;
6928;SDS011;3504;52.616;13.238;2024-02-14T05:36:00;12.73;;;7.80;;
6928;SDS011;3504;52.616;13.238;2024-02-14T05:41:00;12.30;;;8.13;;
6928;SDS011;3504;52.616;13.238;2024-02-14T05:46:01;13.00;;;8.30;;
6928;SDS011;3504;52.616;13.238;2024-02-14T05:51:02;14.37;;;8.63;;
6928;SDS011;3504;52.616;13.238;2024-02-14T05:56:05;12.50;;;8.03;;
6928;SDS011;3504;52.616;13.238;2024-02-14T06:01:06;9.70;;;7.43;;
6928;SDS011;3504;52.616;13.238;2024-02-14T06:06:07;12.67;;;7.90;;
6928;SDS011;3504;52.616;13.238;2024-02-14T06:11:08;12.60;;;8.07;;
6928;SDS011;3504;52.616;13.238;2024-02-14T06:16:09;11.70;;;7.80;;
6928;SDS011;3504;52.616;13.238;2024-02-14T06:21:11;13.77;;;8.37;;
6928;SDS011;3504;52.616;13.238;2024-02-14T06:26:12;12.17;;;7.70;;
6928;SDS011;3504;52.616;13.238;2024-02-14T06:31:12;10.93;;;8.07;;
6928;SDS011;3504;52.616;13.238;2024-02-14T06:36:14;12.83;;;8.10;;
6928;SDS011;3504;52.616;13.238;2024-02-14T06:41:14;13.80;;;7.70;;
6928;SDS011;3504;52.616;13.238;2024-02-14T06:46:15;12.27;;;8.23;;
6928;SDS011;3504;52.616;13.238;2024-02-14T06:51:15;13.50;;;7.87;;
6928;SDS011;3504;52.616;13.238;2024-02-14T06:56:16;13.00;;;7.80;;
6928;SDS011;3504;52.616;13.238;2024-02-14T07:01:16;13.70;;;7.43;;
6928;SDS011;3504;52.616;13.238;2024-02-14T07:06:21;13.97;;;7.83;;
6928;SDS011;3504;52.616;13.238;2024-02-14T07:11:22;13.13;;;7.67;;
6928;SDS011;3504;52.616;13.238;2024-02-14T07:16:24;10.20;;;7.13;;
6928;SDS011;3504;52.616;13.238;2024-02-14T07:21:24;14.00;;;7.07;;
6928;SDS011;3504;52.616;13.238;2024-02-14T07:26:25;10.67;;;7.07;;
6928;SDS011;3504;52.616;13.238;2024-02-14T07:31:28;10.00;;;6.87;;
6928;SDS011;3504;52.616;13.238;2024-02-14T07:36:34;11.67;;;7.90;;
6928;SDS011;3504;52.616;13.238;2024-02-14T07:41:35;9.67;;;7.07;;
6928;SDS011;3504;52.616;13.238;2024-02-14T07:46:36;10.37;;;8.00;;
6928;SDS011;3504;52.616;13.238;2024-02-14T07:51:36;9.60;;;7.27;;
6928;SDS011;3504;52.616;13.238;2024-02-14T07:56:37;9.77;;;7.03;;
6928;SDS011;3504;52.616;13.238;2024-02-14T08:01:38;9.43;;;6.27;;
6928;SDS011;3504;52.616;13.238;2024-02-14T08:06:39;9.07;;;6.30;;
6928;SDS011;3504;52.616;13.238;2024-02-14T08:11:40;8.17;;;5.57;;
6928;SDS011;3504;52.616;13.238;2024-02-14T08:16:41;8.50;;;5.97;;
6928;SDS011;3504;52.616;13.238;2024-02-14T08:21:41;9.30;;;5.83;;
6928;SDS011;3504;52.616;13.238;2024-02-14T08:26:42;8.27;;;5.77;;
6928;SDS011;3504;52.616;13.238;2024-02-14T08:31:43;8.23;;;6.37;;
6928;SDS011;3504;52.616;13.238;2024-02-14T08:36:43;8.13;;;5.80;;
6928;SDS011;3504;52.616;13.238;2024-02-14T08:41:44;11.93;;;6.13;;
6928;SDS011;3504;52.616;13.238;2024-02-14T08:46:46;9.30;;;6.03;;
6928;SDS011;3504;52.616;13.238;2024-02-14T08:51:49;7.97;;;5.57;;
6928;SDS011;3504;52.616;13.238;2024-02-14T08:56:50;6.40;;;5.20;;
6928;SDS011;3504;52.616;13.238;2024-02-14T09:01:53;8.17;;;5.20;;
6928;SDS011;3504;52.616;13.238;2024-02-14T09:06:53;7.43;;;4.80;;
6928;SDS011;3504;52.616;13.238;2024-02-14T09:11:54;10.33;;;5.50;;
6928;SDS011;3504;52.616;13.238;2024-02-14T09:16:55;9.37;;;5.60;;
6928;SDS011;3504;52.616;13.238;2024-02-14T09:21:55;7.37;;;5.30;;
6928;SDS011;3504;52.616;13.238;2024-02-14T09:26:56;9.00;;;5.43;;
6928;SDS011;3504;52.616;13.238;2024-02-14T09:31:56;7.03;;;5.73;;
6928;SDS011;3504;52.616;13.238;2024-02-14T09:36:57;8.40;;;5.87;;
6928;SDS011;3504;52.616;13.238;2024-02-14T09:41:59;7.63;;;5.67;;
6928;SDS011;3504;52.616;13.238;2024-02-14T09:46:59;6.97;;;5.33;;
6928;SDS011;3504;52.616;13.238;2024-02-14T09:52:01;11.07;;;5.10;;
6928;SDS011;3504;52.616;13.238;2024-02-14T09:57:05;10.20;;;5.30;;
6928;SDS011;3504;52.616;13.238;2024-02-14T10:02:06;9.97;;;5.20;;
6928;SDS011;3504;52.616;13.238;2024-02-14T10:07:08;8.20;;;5.70;;
6928;SDS011;3504;52.616;13.238;2024-02-14T10:12:09;9.07;;;5.83;;
6928;SDS011;3504;52.616;13.238;2024-02-14T10:17:16;7.17;;;5.27;;
6928;SDS011;3504;52.616;13.238;2024-02-14T10:22:20;7.53;;;4.93;;
6928;SDS011;3504;52.616;13.238;2024-02-14T10:27:20;11.17;;;5.43;;
6928;SDS011;3504;52.616;13.238;2024-02-14T10:32:22;9.53;;;6.50;;
6928;SDS011;3504;52.616;13.238;2024-02-14T10:37:24;7.60;;;5.40;;
6928;SDS011;3504;52.616;13.238;2024-02-14T10:42:26;8.37;;;4.90;;
6928;SDS011;3504;52.616;13.238;2024-02-14T10:47:30;8.20;;;5.07;;
6928;SDS011;3504;52.616;13.238;2024-02-14T10:52:36;7.73;;;5.83;;
6928;SDS011;3504;52.616;13.238;2024-02-14T10:57:39;6.33;;;5.23;;
6928;SDS011;3504;52.616;13.238;2024-02-14T11:02:40;7.97;;;5.20;;
6928;SDS011;3504;52.616;13.238;2024-02-14T11:07:44;7.53;;;4.80;;
6928;SDS011;3504;52.616;13.238;2024-02-14T11:12:53;6.53;;;4.90;;
6928;SDS011;3504;52.616;13.238;2024-02-14T11:18:02;7.90;;;4.83;;
6928;SDS011;3504;52.616;13.238;2024-02-14T11:23:05;7.60;;;4.73;;
6928;SDS011;3504;52.616;13.238;2024-02-14T11:28:14;8.37;;;5.20;;
6928;SDS011;3504;52.616;13.238;2024-02-14T11:33:17;8.30;;;5.50;;
6928;SDS011;3504;52.616;13.238;2024-02-14T11:38:20;10.07;;;4.80;;
6928;SDS011;3504;52.616;13.238;2024-02-14T11:43:21;8.57;;;5.23;;
6928;SDS011;3504;52.616;13.238;2024-02-14T11:48:22;9.57;;;5.33;;
6928;SDS011;3504;52.616;13.238;2024-02-14T11:53:26;8.37;;;5.47;;
6928;SDS011;3504;52.616;13.238;2024-02-14T11:58:28;8.57;;;5.20;;
6928;SDS011;3504;52.616;13.238;2024-02-14T12:03:28;10.33;;;5.70;;
6928;SDS011;3504;52.616;13.238;2024-02-14T12:08:29;7.67;;;5.33;;
6928;SDS011;3504;52.616;13.238;2024-02-14T12:13:30;9.10;;;5.17;;
6928;SDS011;3504;52.616;13.238;2024-02-14T12:18:32;6.30;;;5.50;;
6928;SDS011;3504;52.616;13.238;2024-02-14T12:23:34;8.13;;;5.57;;
6928;SDS011;3504;52.616;13.238;2024-02-14T12:28:35;9.27;;;5.33;;
6928;SDS011;3504;52.616;13.238;2024-02-14T12:33:37;6.03;;;4.90;;
6928;SDS011;3504;52.616;13.238;2024-02-14T12:38:38;9.30;;;5.00;;
6928;SDS011;3504;52.616;13.238;2024-02-14T12:43:39;7.63;;;4.90;;
6928;SDS011;3504;52.616;13.238;2024-02-14T12:48:39;6.73;;;5.43;;
6928;SDS011;3504;52.616;13.238;2024-02-14T12:53:40;6.33;;;5.30;;
6928;SDS011;3504;52.616;13.238;2024-02-14T12:58:40;8.33;;;4.97;;
6928;SDS011;3504;52.616;13.238;2024-02-14T13:03:42;6.20;;;4.83;;
6928;SDS011;3504;52.616;13.238;2024-02-14T13:08:42;11.07;;;5.50;;
6928;SDS011;3504;52.616;13.238;2024-02-14T13:13:43;9.17;;;5.20;;
6928;SDS011;3504;52.616;13.238;2024-02-14T13:18:44;7.77;;;4.93;;
6928;SDS011;3504;52.616;13.238;2024-02-14T13:23:44;8.10;;;5.90;;
6928;SDS011;3504;52.616;13.238;2024-02-14T13:28:45;7.93;;;5.43;;
6928;SDS011;3504;52.616;13.238;2024-02-14T13:33:48;9.67;;;6.33;;
6928;SDS011;3504;52.616;13.238;2024-02-14T13:38:49;14.60;;;5.83;;
6928;SDS011;3504;52.616;13.238;2024-02-14T13:43:49;8.07;;;5.77;;
6928;SDS011;3504;52.616;13.238;2024-02-14T13:48:50;9.73;;;6.00;;
6928;SDS011;3504;52.616;13.238;2024-02-14T13:53:50;8.77;;;6.17;;
6928;SDS011;3504;52.616;13.238;2024-02-14T13:58:51;7.63;;;5.77;;
6928;SDS011;3504;52.616;13.238;2024-02-14T14:03:51;8.70;;;6.23;;
6928;SDS011;3504;52.616;13.238;2024-02-14T14:08:54;7.63;;;6.37;;
6928;SDS011;3504;52.616;13.238;2024-02-14T14:13:55;7.87;;;6.47;;
6928;SDS011;3504;52.616;13.238;2024-02-14T14:18:55;9.87;;;6.77;;
6928;SDS011;3504;52.616;13.238;2024-02-14T14:23:58;7.80;;;7.00;;
6928;SDS011;3504;52.616;13.238;2024-02-14T14:28:58;11.87;;;7.17;;
6928;SDS011;3504;52.616;13.238;2024-02-14T14:33:59;9.80;;;7.17;;
6928;SDS011;3504;52.616;13.238;2024-02-14T14:38:59;10.13;;;7.43;;
6928;SDS011;3504;52.616;13.238;2024-02-14T14:44:00;8.00;;;6.60;;
6928;SDS011;3504;52.616;13.238;2024-02-14T14:49:01;8.83;;;6.93;;
6928;SDS011;3504;52.616;13.238;2024-02-14T14:54:02;12.50;;;6.93;;
6928;SDS011;3504;52.616;13.238;2024-02-14T14:59:02;12.23;;;7.00;;
6928;SDS011;3504;52.616;13.238;2024-02-14T15:04:03;10.83;;;6.70;;
6928;SDS011;3504;52.616;13.238;2024-02-14T15:09:06;9.37;;;6.37;;
6928;SDS011;3504;52.616;13.238;2024-02-14T15:14:06;7.50;;;6.53;;
6928;SDS011;3504;52.616;13.238;2024-02-14T15:19:07;8.70;;;6.80;;
6928;SDS011;3504;52.616;13.238;2024-02-14T15:24:08;9.17;;;6.93;;
6928;SDS011;3504;52.616;13.238;2024-02-14T15:29:08;9.27;;;7.67;;
6928;SDS011;3504;52.616;13.238;2024-02-14T15:34:27;8.37;;;6.77;;
6928;SDS011;3504;52.616;13.238;2024-02-14T15:39:29;10.73;;;6.70;;
6928;SDS011;3504;52.616;13.238;2024-02-14T15:44:29;9.40;;;7.33;;
6928;SDS011;3504;52.616;13.238;2024-02-14T15:49:30;9.50;;;7.43;;
6928;SDS011;3504;52.616;13.238;2024-02-14T15:54:30;9.63;;;7.93;;
6928;SDS011;3504;52.616;13.238;2024-02-14T15:59:31;13.20;;;8.60;;
6928;SDS011;3504;52.616;13.238;2024-02-14T16:04:31;11.70;;;7.67;;
6928;SDS011;3504;52.616;13.238;2024-02-14T16:09:35;11.23;;;7.77;;
6928;SDS011;3504;52.616;13.238;2024-02-14T16:14:36;11.37;;;7.50;;
6928;SDS011;3504;52.616;13.238;2024-02-14T16:19:37;13.77;;;8.07;;
6928;SDS011;3504;52.616;13.238;2024-02-14T16:24:37;8.80;;;7.33;;
6928;SDS011;3504;52.616;13.238;2024-02-14T16:29:39;13.93;;;7.87;;
6928;SDS011;3504;52.616;13.238;2024-02-14T16:34:40;11.47;;;7.67;;
6928;SDS011;3504;52.616;13.238;2024-02-14T16:39:41;11.33;;;8.13;;
6928;SDS011;3504;52.616;13.238;2024-02-14T16:44:42;10.03;;;8.00;;
6928;SDS011;3504;52.616;13.238;2024-02-14T16:49:43;11.03;;;8.43;;
6928;SDS011;3504;52.616;13.238;2024-02-14T16:54:43;18.43;;;9.30;;
6928;SDS011;3504;52.616;13.238;2024-02-14T16:59:44;13.27;;;9.57;;
6928;SDS011;3504;52.616;13.238;2024-02-14T17:04:51;12.43;;;10.27;;
6928;SDS011;3504;52.616;13.238;2024-02-14T17:09:52;12.43;;;7.80;;
6928;SDS011;3504;52.616;13.238;2024-02-14T17:14:57;12.17;;;8.13;;
6928;SDS011;3504;52.616;13.238;2024-02-14T17:19:58;14.50;;;10.97;;
6928;SDS011;3504;52.616;13.238;2024-02-14T17:24:59;16.47;;;9.50;;
6928;SDS011;3504;52.616;13.238;2024-02-14T17:29:59;13.30;;;10.07;;
6928;SDS011;3504;52.616;13.238;2024-02-14T17:35:00;14.93;;;11.75;;
6928;SDS011;3504;52.616;13.238;2024-02-14T17:40:01;11.23;;;8.37;;
6928;SDS011;3504;52.616;13.238;2024-02-14T17:45:02;10.63;;;8.13;;
6928;SDS011;3504;52.616;13.238;2024-02-14T17:50:05;8.83;;;7.47;;
6928;SDS011;3504;52.616;13.238;2024-02-14T17:55:07;10.97;;;8.17;;
6928;SDS011;3504;52.616;13.238;2024-02-14T18:00:08;11.43;;;8.30;;
6928;SDS011;3504;52.616;13.238;2024-02-14T18:05:12;13.73;;;8.50;;
6928;SDS011;3504;52.616;13.238;2024-02-14T18:10:13;11.63;;;8.20;;
6928;SDS011;3504;52.616;13.238;2024-02-14T18:15:14;9.80;;;7.87;;
6928;SDS011;3504;52.616;13.238;2024-02-14T18:20:15;10.23;;;8.73;;
6928;SDS011;3504;52.616;13.238;2024-02-14T18:25:15;11.83;;;8.43;;
6928;SDS011;3504;52.616;13.238;2024-02-14T18:30:16;9.33;;;7.77;;
6928;SDS011;3504;52.616;13.238;2024-02-14T18:35:17;13.70;;;8.03;;
6928;SDS011;3504;52.616;13.238;2024-02-14T18:40:18;9.60;;;8.00;;
6928;SDS011;3504;52.616;13.238;2024-02-14T18:45:19;8.93;;;6.87;;
6928;SDS011;3504;52.616;13.238;2024-02-14T18:50:20;8.43;;;7.23;;
6928;SDS011;3504;52.616;13.238;2024-02-14T18:55:21;9.73;;;7.50;;
6928;SDS011;3504;52.616;13.238;2024-02-14T19:00:22;11.07;;;7.17;;
6928;SDS011;3504;52.616;13.238;2024-02-14T19:05:23;8.67;;;7.20;;
6928;SDS011;3504;52.616;13.238;2024-02-14T19:10:24;11.07;;;7.90;;
6928;SDS011;3504;52.616;13.238;2024-02-14T19:15:24;9.13;;;7.60;;
6928;SDS011;3504;52.616;13.238;2024-02-14T19:20:25;10.67;;;7.47;;
6928;SDS011;3504;52.616;13.238;2024-02-14T19:25:30;9.10;;;7.20;;
6928;SDS011;3504;52.616;13.238;2024-02-14T19:30:30;7.93;;;7.03;;
6928;SDS011;3504;52.616;13.238;2024-02-14T19:35:31;8.10;;;6.73;;
6928;SDS011;3504;52.616;13.238;2024-02-14T19:40:31;10.97;;;6.77;;
6928;SDS011;3504;52.616;13.238;2024-02-14T19:45:34;10.97;;;6.57;;
6928;SDS011;3504;52.616;13.238;2024-02-14T19:50:36;7.20;;;6.50;;
6928;SDS011;3504;52.616;13.238;2024-02-14T19:55:37;11.60;;;6.10;;
6928;SDS011;3504;52.616;13.238;2024-02-14T20:00:37;9.27;;;6.43;;
6928;SDS011;3504;52.616;13.238;2024-02-14T20:05:38;7.37;;;6.27;;
6928;SDS011;3504;52.616;13.238;2024-02-14T20:10:39;6.97;;;4.90;;
6928;SDS011;3504;52.616;13.238;2024-02-14T20:15:40;9.40;;;5.50;;
6928;SDS011;3504;52.616;13.238;2024-02-14T20:20:40;7.27;;;5.37;;
6928;SDS011;3504;52.616;13.238;2024-02-14T20:25:41;7.37;;;5.50;;
6928;SDS011;3504;52.616;13.238;2024-02-14T20:30:41;6.77;;;4.97;;
6928;SDS011;3504;52.616;13.238;2024-02-14T20:35:42;7.37;;;5.40;;
6928;SDS011;3504;52.616;13.238;2024-02-14T20:40:42;6.07;;;5.10;;
6928;SDS011;3504;52.616;13.238;2024-02-14T20:45:43;11.83;;;5.87;;
6928;SDS011;3504;52.616;13.238;2024-02-14T20:50:44;6.43;;;5.80;;
6928;SDS011;3504;52.616;13.238;2024-02-14T20:55:44;6.37;;;5.27;;
6928;SDS011;3504;52.616;13.238;2024-02-14T21:00:45;7.47;;;5.60;;
6928;SDS011;3504;52.616;13.238;2024-02-14T21:05:46;10.20;;;5.43;;
6928;SDS011;3504;52.616;13.238;2024-02-14T21:10:47;9.53;;;6.37;;
6928;SDS011;3504;52.616;13.238;2024-02-14T21:15:48;7.10;;;5.57;;
6928;SDS011;3504;52.616;13.238;2024-02-14T21:20:48;8.97;;;6.03;;
6928;SDS011;3504;52.616;13.238;2024-02-14T21:25:49;8.03;;;5.90;;
6928;SDS011;3504;52.616;13.238;2024-02-14T21:30:49;8.07;;;6.20;;
6928;SDS011;3504;52.616;13.238;2024-02-14T21:35:50;7.77;;;6.60;;
6928;SDS011;3504;52.616;13.238;2024-02-14T21:40:50;7.80;;;6.37;;
6928;SDS011;3504;52.616;13.238;2024-02-14T21:45:51;8.70;;;6.73;;
6928;SDS011;3504;52.616;13.238;2024-02-14T21:50:52;9.50;;;7.43;;
6928;SDS011;3504;52.616;13.238;2024-02-14T21:55:52;8.53;;;6.80;;
6928;SDS011;3504;52.616;13.238;2024-02-14T22:00:53;8.63;;;7.20;;
6928;SDS011;3504;52.616;13.238;2024-02-14T22:05:54;9.40;;;6.53;;
6928;SDS011;3504;52.616;13.238;2024-02-14T22:10:54;8.80;;;6.73;;
6928;SDS011;3504;52.616;13.238;2024-02-14T22:15:58;11.37;;;7.23;;
6928;SDS011;3504;52.616;13.238;2024-02-14T22:20:58;13.37;;;7.63;;
6928;SDS011;3504;52.616;13.238;2024-02-14T22:26:00;10.07;;;7.53;;
6928;SDS011;3504;52.616;13.238;2024-02-14T22:31:01;10.00;;;7.23;;
6928;SDS011;3504;52.616;13.238;2024-02-14T22:36:02;9.57;;;7.70;;
6928;SDS011;3504;52.616;13.238;2024-02-14T22:41:02;10.43;;;7.67;;
6928;SDS011;3504;52.616;13.238;2024-02-14T22:46:03;10.67;;;7.23;;
6928;SDS011;3504;52.616;13.238;2024-02-14T22:51:04;8.67;;;7.77;;
6928;SDS011;3504;52.616;13.238;2024-02-14T22:56:04;10.33;;;8.07;;
6928;SDS011;3504;52.616;13.238;2024-02-14T23:01:06;9.53;;;7.30;;
6928;SDS011;3504;52.616;13.238;2024-02-14T23:06:07;9.50;;;8.10;;
6928;SDS011;3504;52.616;13.238;2024-02-14T23:11:07;9.23;;;8.27;;
6928;SDS011;3504;52.616;13.238;2024-02-14T23:16:08;9.87;;;7.77;;
6928;SDS011;3504;52.616;13.238;2024-02-14T23:21:09;11.70;;;7.90;;
6928;SDS011;3504;52.616;13.238;2024-02-14T23:26:12;11.67;;;9.20;;
6928;SDS011;3504;52.616;13.238;2024-02-14T23:31:13;14.20;;;9.57;;
6928;SDS011;3504;52.616;13.238;2024-02-14T23:36:18;12.87;;;8.60;;
6928;SDS011;3504;52.616;13.238;2024-02-14T23:41:19;11.93;;;8.67;;
6928;SDS011;3504;52.616;13.238;2024-02-14T23:46:20;12.43;;;8.90;;
6928;SDS011;3504;52.616;13.238;2024-02-14T23:51:21;12.43;;;9.97;;
6928;SDS011;3504;52.616;13.238;2024-02-14T23:56:21;14.03;;;9.37;;
